createdAt,value
2023-03-24T00:00:17.736Z,100142.97
2023-03-24T00:02:46.466Z,100146.66
2023-03-24T00:05:16.657Z,100142.00
2023-03-24T00:07:43.563Z,100140.81
2023-03-24T00:10:18.018Z,100138.25
2023-03-24T00:12:46.007Z,100143.84
2023-03-24T00:15:15.548Z,100144.34
2023-03-24T00:17:42.271Z,100135.94
2023-03-24T00:20:14.717Z,100137.53
2023-03-24T00:22:48.802Z,100148.13
2023-03-24T00:25:17.605Z,100140.31
2023-03-24T00:27:48.958Z,100132.28
2023-03-24T00:30:17.308Z,100133.66
2023-03-24T00:32:44.830Z,100132.06
2023-03-24T00:35:13.794Z,100127.91
2023-03-24T00:37:41.748Z,100120.97
2023-03-24T00:40:16.395Z,100113.44
2023-03-24T00:42:45.957Z,100114.53
2023-03-24T00:45:18.250Z,100111.03
2023-03-24T00:47:45.007Z,100112.13
2023-03-24T00:50:20.607Z,100108.09
2023-03-24T00:52:49.160Z,100100.53
2023-03-24T00:55:16.702Z,100090.47
2023-03-24T00:57:51.827Z,100104.78
2023-03-24T01:00:21.501Z,100087.91
2023-03-24T01:02:53.766Z,100087.41
2023-03-24T01:05:22.784Z,100084.25
2023-03-24T01:07:52.059Z,100073.91
2023-03-24T01:10:21.769Z,100081.56
2023-03-24T01:12:49.017Z,100078.00
2023-03-24T01:15:20.300Z,100084.00
2023-03-24T01:17:48.814Z,100078.00
2023-03-24T01:20:16.502Z,100074.72
2023-03-24T01:22:44.811Z,100072.84
2023-03-24T01:25:22.793Z,100067.97
2023-03-24T01:27:51.056Z,100066.28
2023-03-24T01:30:21.847Z,100064.44
2023-03-24T01:32:48.587Z,100061.31
2023-03-24T01:35:15.408Z,100064.34
2023-03-24T01:37:42.205Z,100060.09
2023-03-24T01:40:12.494Z,100047.09
2023-03-24T01:42:39.899Z,100056.19
2023-03-24T01:45:40.560Z,100047.09
2023-03-24T01:48:16.429Z,100047.81
2023-03-24T01:50:48.991Z,100051.94
2023-03-24T01:53:15.823Z,100048.50
2023-03-24T01:55:45.972Z,100048.09
2023-03-24T01:58:13.056Z,100050.88
2023-03-24T02:00:42.228Z,100049.94
2023-03-24T02:03:14.916Z,100049.41
2023-03-24T02:05:45.253Z,100048.03
2023-03-24T02:08:32.847Z,100039.75
2023-03-24T02:11:01.592Z,100044.13
2023-03-24T02:13:28.217Z,100036.47
2023-03-24T02:16:14.055Z,100039.25
2023-03-24T02:19:01.609Z,100043.41
2023-03-24T02:21:46.383Z,100036.97
2023-03-24T02:24:31.705Z,100038.78
2023-03-24T02:27:27.118Z,100039.97
2023-03-24T02:29:53.571Z,100040.22
2023-03-24T02:32:47.639Z,100040.69
2023-03-24T02:35:32.479Z,100046.25
2023-03-24T02:38:20.432Z,100044.31
2023-03-24T02:40:47.365Z,100042.50
2023-03-24T02:43:18.128Z,100045.88
2023-03-24T02:45:54.492Z,100045.41
2023-03-24T02:48:52.289Z,100042.31
2023-03-24T02:51:34.729Z,100046.69
2023-03-24T02:54:07.311Z,100028.25
2023-03-24T02:56:37.604Z,100032.09
2023-03-24T02:59:15.974Z,100015.72
2023-03-24T03:01:54.177Z,100020.00
2023-03-24T03:04:29.557Z,100012.59
2023-03-24T03:06:59.756Z,100024.25
2023-03-24T03:09:28.936Z,100027.03
2023-03-24T03:11:59.820Z,100011.72
2023-03-24T03:14:38.945Z,100010.22
2023-03-24T03:17:12.721Z,100000.63
2023-03-24T03:19:44.227Z,100002.31
2023-03-24T03:22:17.695Z,100015.28
2023-03-24T03:24:50.539Z,100016.38
2023-03-24T03:27:27.328Z,100008.69
2023-03-24T03:30:00.360Z,100009.94
2023-03-24T03:32:31.766Z,100004.31
2023-03-24T03:35:11.092Z,100018.28
2023-03-24T03:37:59.064Z,100012.38
2023-03-24T03:40:34.811Z,100014.59
2023-03-24T03:43:02.227Z,100014.47
2023-03-24T03:45:28.897Z,100017.66
2023-03-24T03:47:55.669Z,100013.06
2023-03-24T03:50:22.349Z,100011.47
2023-03-24T03:52:50.152Z,100004.41
2023-03-24T03:55:17.128Z,100000.81
2023-03-24T03:57:43.736Z,100005.38
2023-03-24T04:00:17.124Z,100003.28
2023-03-24T04:03:14.787Z,99999.88
2023-03-24T04:05:57.855Z,99988.38
2023-03-24T04:08:32.170Z,99996.94
2023-03-24T04:11:23.327Z,99992.66
2023-03-24T04:14:19.145Z,99988.22
2023-03-24T04:16:46.354Z,99988.31
2023-03-24T04:19:24.444Z,99991.50
2023-03-24T04:22:13.059Z,99997.81
2023-03-24T04:25:07.483Z,99994.41
2023-03-24T04:27:46.657Z,99992.28
2023-03-24T04:30:26.833Z,100004.00
2023-03-24T04:33:05.569Z,100010.75
2023-03-24T04:35:43.847Z,100004.78
2023-03-24T04:38:19.036Z,100003.81
2023-03-24T04:40:49.616Z,99998.63
2023-03-24T04:43:20.993Z,99995.19
2023-03-24T04:45:50.093Z,100007.56
2023-03-24T04:48:18.820Z,99998.09
2023-03-24T04:50:55.364Z,100006.19
2023-03-24T04:53:22.573Z,100006.72
2023-03-24T04:56:24.745Z,100012.59
2023-03-24T04:58:51.395Z,99997.66
2023-03-24T05:01:21.446Z,100005.88
2023-03-24T05:03:51.641Z,100008.22
2023-03-24T05:06:18.190Z,100003.00
2023-03-24T05:08:44.739Z,100011.97
2023-03-24T05:11:11.341Z,100014.31
2023-03-24T05:13:37.944Z,100012.38
2023-03-24T05:16:04.863Z,100015.25
2023-03-24T05:18:31.575Z,100013.03
2023-03-24T05:20:58.375Z,100017.06
2023-03-24T05:23:24.956Z,100009.59
2023-03-24T05:25:51.561Z,100017.47
2023-03-24T05:28:18.457Z,100019.91
2023-03-24T05:30:45.266Z,100011.28
2023-03-24T05:33:12.228Z,100014.97
2023-03-24T05:35:38.920Z,100021.56
2023-03-24T05:38:05.603Z,100025.38
2023-03-24T05:40:32.319Z,100021.09
2023-03-24T05:42:59.032Z,100021.13
2023-03-24T05:45:26.927Z,100025.78
2023-03-24T05:47:53.513Z,100021.47
2023-03-24T05:50:20.048Z,100018.97
2023-03-24T05:52:46.885Z,100028.00
2023-03-24T05:55:16.014Z,100024.00
2023-03-24T05:57:43.531Z,100024.38
2023-03-24T06:00:16.865Z,100030.63
2023-03-24T06:02:45.261Z,100032.25
2023-03-24T06:05:13.024Z,100034.84
2023-03-24T06:07:42.715Z,100017.59
2023-03-24T06:10:11.505Z,100028.78
2023-03-24T06:12:38.725Z,100023.91
2023-03-24T06:15:06.307Z,100027.78
2023-03-24T06:17:33.937Z,100021.09
2023-03-24T06:20:04.211Z,100026.91
2023-03-24T06:22:32.829Z,100023.78
2023-03-24T06:24:59.685Z,100020.81
2023-03-24T06:27:30.374Z,100024.19
2023-03-24T06:29:57.922Z,100016.94
2023-03-24T06:32:25.522Z,100025.63
2023-03-24T06:34:52.986Z,100022.75
2023-03-24T06:37:22.388Z,100029.50
2023-03-24T06:39:48.988Z,100025.66
2023-03-24T06:42:16.067Z,100034.31
2023-03-24T06:44:42.611Z,100022.50
2023-03-24T06:47:09.195Z,100014.81
2023-03-24T06:49:37.210Z,100008.06
2023-03-24T06:52:04.708Z,100003.00
2023-03-24T06:54:31.551Z,100001.34
2023-03-24T06:56:58.230Z,99994.69
2023-03-24T06:59:24.981Z,100007.56
2023-03-24T07:01:52.179Z,100007.44
2023-03-24T07:04:19.411Z,99999.94
2023-03-24T07:07:00.899Z,99995.97
2023-03-24T07:09:32.726Z,99997.03
2023-03-24T07:11:59.291Z,100004.66
2023-03-24T07:14:26.557Z,100003.22
2023-03-24T07:16:53.726Z,100000.06
2023-03-24T07:19:20.856Z,99985.94
2023-03-24T07:21:50.040Z,99980.75
2023-03-24T07:24:17.825Z,99980.09
2023-03-24T07:26:44.622Z,99984.94
2023-03-24T07:29:11.874Z,99987.56
2023-03-24T07:31:39.364Z,99991.03
2023-03-24T07:34:06.541Z,99987.09
2023-03-24T07:36:33.278Z,99977.94
2023-03-24T07:38:59.843Z,99974.81
2023-03-24T07:41:27.732Z,99968.19
2023-03-24T07:43:54.300Z,99973.03
2023-03-24T07:46:20.906Z,99973.28
2023-03-24T07:48:47.650Z,99972.88
2023-03-24T07:51:14.277Z,99975.81
2023-03-24T07:53:40.806Z,99973.34
2023-03-24T07:56:07.946Z,99970.88
2023-03-24T07:58:34.555Z,99973.94
2023-03-24T08:01:01.146Z,99969.91
2023-03-24T08:03:28.451Z,99971.66
2023-03-24T08:05:55.468Z,99970.84
2023-03-24T08:08:22.194Z,99968.88
2023-03-24T08:10:50.276Z,99975.28
2023-03-24T08:13:18.035Z,99966.81
2023-03-24T08:15:44.710Z,99967.78
2023-03-24T08:18:11.527Z,99961.19
2023-03-24T08:20:38.461Z,99950.81
2023-03-24T08:23:07.298Z,99949.25
2023-03-24T08:25:37.774Z,99945.16
2023-03-24T08:28:06.102Z,99941.22
2023-03-24T08:30:33.026Z,99935.72
2023-03-24T08:33:02.645Z,99925.13
2023-03-24T08:35:32.114Z,99923.00
2023-03-24T08:37:59.712Z,99928.47
2023-03-24T08:40:27.812Z,99926.16
2023-03-24T08:42:57.777Z,99924.16
2023-03-24T08:45:27.629Z,99920.97
2023-03-24T08:47:55.488Z,99909.47
2023-03-24T08:50:25.943Z,99922.94
2023-03-24T08:52:52.679Z,99917.91
2023-03-24T08:55:21.050Z,99912.66
2023-03-24T08:57:47.897Z,99915.66
2023-03-24T09:00:16.063Z,99910.50
2023-03-24T09:02:47.545Z,99913.13
2023-03-24T09:05:32.903Z,99917.44
2023-03-24T09:08:08.269Z,99908.44
2023-03-24T09:10:35.040Z,99917.41
2023-03-24T09:13:01.832Z,99917.19
2023-03-24T09:15:28.583Z,99911.50
2023-03-24T09:17:55.256Z,99908.19
2023-03-24T09:20:21.866Z,99908.38
2023-03-24T09:22:49.794Z,99914.56
2023-03-24T09:25:19.161Z,99905.47
2023-03-24T09:27:46.532Z,99892.31
2023-03-24T09:30:15.646Z,99895.25
2023-03-24T09:32:42.510Z,99903.53
2023-03-24T09:35:10.113Z,99889.75
2023-03-24T09:37:38.511Z,99882.47
2023-03-24T09:40:06.072Z,99887.13
2023-03-24T09:42:45.659Z,99882.63
2023-03-24T09:45:19.631Z,99880.19
2023-03-24T09:47:58.692Z,99871.47
2023-03-24T09:50:29.341Z,99866.81
2023-03-24T09:53:05.632Z,99857.69
2023-03-24T09:55:33.016Z,99851.69
2023-03-24T09:58:05.746Z,99857.47
2023-03-24T10:00:33.208Z,99843.69
2023-03-24T10:03:12.255Z,99843.53
2023-03-24T10:05:48.203Z,99845.91
2023-03-24T10:08:21.655Z,99840.44
2023-03-24T10:10:53.860Z,99844.41
2023-03-24T10:13:44.187Z,99839.38
2023-03-24T10:16:18.200Z,99827.59
2023-03-24T10:18:50.781Z,99819.28
2023-03-24T10:21:22.570Z,99817.06
2023-03-24T10:24:05.958Z,99817.41
2023-03-24T10:27:29.984Z,99819.28
2023-03-24T10:30:04.325Z,99800.78
2023-03-24T10:32:35.076Z,99799.69
2023-03-24T10:35:10.022Z,99811.78
2023-03-24T10:37:37.444Z,99788.97
2023-03-24T10:40:14.890Z,99791.66
2023-03-24T10:42:41.455Z,99797.72
2023-03-24T10:45:14.093Z,99804.81
2023-03-24T10:47:42.144Z,99802.69
2023-03-24T10:50:14.543Z,99788.22
2023-03-24T10:52:47.344Z,99798.53
2023-03-24T10:55:17.155Z,99800.19
2023-03-24T10:57:49.909Z,99797.81
2023-03-24T11:00:19.866Z,99795.63
2023-03-24T11:02:59.297Z,99791.91
2023-03-24T11:05:30.661Z,99774.94
2023-03-24T11:08:12.357Z,99775.31
2023-03-24T11:10:39.116Z,99766.25
2023-03-24T11:13:41.212Z,99763.88
2023-03-24T11:16:16.188Z,99748.41
2023-03-24T11:19:22.713Z,99750.94
2023-03-24T11:21:57.744Z,99751.22
2023-03-24T11:24:25.121Z,99743.34
2023-03-24T11:27:04.219Z,99740.91
2023-03-24T11:29:34.235Z,99731.91
2023-03-24T11:32:03.513Z,99728.97
2023-03-24T11:34:34.399Z,99727.34
2023-03-24T11:37:09.374Z,99723.41
2023-03-24T11:39:36.154Z,99721.53
2023-03-24T11:42:10.922Z,99720.94
2023-03-24T11:44:46.797Z,99710.13
2023-03-24T11:47:37.566Z,99695.38
2023-03-24T11:50:07.111Z,99708.91
2023-03-24T11:52:39.579Z,99694.41
2023-03-24T11:55:16.466Z,99694.41
2023-03-24T11:57:50.418Z,99714.34
2023-03-24T12:00:30.458Z,99684.78
2023-03-24T12:03:33.066Z,99677.66
2023-03-24T12:06:02.686Z,99678.94
2023-03-24T12:08:55.629Z,99665.19
2023-03-24T12:11:56.323Z,99665.28
2023-03-24T12:14:47.728Z,99650.50
2023-03-24T12:17:21.939Z,99649.22
2023-03-24T12:20:07.548Z,99661.13
2023-03-24T12:23:04.819Z,99655.75
2023-03-24T12:25:31.387Z,99644.00
2023-03-24T12:28:19.403Z,99636.00
2023-03-24T12:31:05.187Z,99623.91
2023-03-24T12:33:40.791Z,99629.22
2023-03-24T12:36:37.262Z,99625.06
2023-03-24T12:39:12.777Z,99617.50
2023-03-24T12:42:05.377Z,99627.13
2023-03-24T12:45:04.875Z,99623.59
2023-03-24T12:47:40.416Z,99614.25
2023-03-24T12:50:34.309Z,99602.91
2023-03-24T12:53:08.132Z,99600.69
2023-03-24T12:55:43.409Z,99605.94
2023-03-24T12:58:35.900Z,99596.25
2023-03-24T13:01:29.892Z,99595.41
2023-03-24T13:04:05.651Z,99589.22
2023-03-24T13:07:14.787Z,99594.22
2023-03-24T13:10:06.760Z,99593.09
2023-03-24T13:12:39.213Z,99589.47
2023-03-24T13:15:11.820Z,99589.94
2023-03-24T13:17:48.625Z,99582.41
2023-03-24T13:20:28.012Z,99585.03
2023-03-24T13:22:57.587Z,99571.63
2023-03-24T13:25:27.255Z,99579.56
2023-03-24T13:27:58.619Z,99560.19
2023-03-24T13:30:33.799Z,99578.47
2023-03-24T13:33:11.484Z,99574.84
2023-03-24T13:36:16.636Z,99556.00
2023-03-24T13:38:50.221Z,99558.75
2023-03-24T13:41:23.880Z,99565.00
2023-03-24T13:44:02.650Z,99553.88
2023-03-24T13:46:29.604Z,99557.78
2023-03-24T13:48:59.033Z,99552.50
2023-03-24T13:51:41.055Z,99545.03
2023-03-24T13:54:16.502Z,99548.91
2023-03-24T13:56:49.126Z,99541.09
2023-03-24T13:59:40.990Z,99535.56
2023-03-24T14:02:18.105Z,99532.88
2023-03-24T14:04:47.471Z,99531.69
2023-03-24T14:07:41.187Z,99528.91
2023-03-24T14:10:17.332Z,99533.38
2023-03-24T14:12:58.908Z,99535.19
2023-03-24T14:15:35.844Z,99521.81
2023-03-24T14:18:26.296Z,99515.19
2023-03-24T14:20:55.892Z,99511.97
2023-03-24T14:23:49.282Z,99508.41
2023-03-24T14:26:23.232Z,99515.88
2023-03-24T14:28:54.293Z,99515.53
2023-03-24T14:31:36.583Z,99511.56
2023-03-24T14:34:20.347Z,99511.28
2023-03-24T14:37:00.067Z,99510.16
2023-03-24T14:39:43.981Z,99509.72
2023-03-24T14:42:29.148Z,99508.47
2023-03-24T14:44:59.889Z,99512.03
2023-03-24T14:47:31.037Z,99503.44
2023-03-24T14:50:00.049Z,99508.19
2023-03-24T14:52:39.063Z,99507.06
2023-03-24T14:55:10.349Z,99507.69
2023-03-24T14:57:45.644Z,99504.34
2023-03-24T15:00:31.123Z,99506.91
2023-03-24T15:03:10.828Z,99497.25
2023-03-24T15:05:38.871Z,99500.53
2023-03-24T15:08:23.496Z,99498.44
2023-03-24T15:11:04.086Z,99501.13
2023-03-24T15:13:42.691Z,99498.22
2023-03-24T15:16:12.589Z,99479.41
2023-03-24T15:19:00.717Z,99480.22
2023-03-24T15:21:37.083Z,99483.50
2023-03-24T15:24:29.194Z,99481.47
2023-03-24T15:27:14.919Z,99477.66
2023-03-24T15:29:43.413Z,99485.28
2023-03-24T15:32:19.003Z,99488.72
2023-03-24T15:34:52.903Z,99489.25
2023-03-24T15:37:31.791Z,99476.75
2023-03-24T15:40:12.560Z,99480.34
2023-03-24T15:42:45.145Z,99480.88
2023-03-24T15:45:27.713Z,99481.72
2023-03-24T15:47:55.062Z,99477.47
2023-03-24T15:50:32.037Z,99474.88
2023-03-24T15:53:18.771Z,99468.59
2023-03-24T15:55:45.730Z,99472.84
2023-03-24T15:58:21.977Z,99482.47
2023-03-24T16:00:53.175Z,99473.59
2023-03-24T16:03:26.406Z,99481.81
2023-03-24T16:05:55.570Z,99474.69
2023-03-24T16:08:30.823Z,99479.53
2023-03-24T16:11:07.857Z,99471.63
2023-03-24T16:13:35.051Z,99478.75
2023-03-24T16:16:23.341Z,99465.53
2023-03-24T16:18:50.759Z,99465.84
2023-03-24T16:21:19.073Z,99464.41
2023-03-24T16:23:47.020Z,99464.63
2023-03-24T16:26:18.082Z,99464.13
2023-03-24T16:28:45.972Z,99473.13
2023-03-24T16:31:34.993Z,99462.22
2023-03-24T16:34:01.692Z,99463.47
2023-03-24T16:36:28.271Z,99458.97
2023-03-24T16:38:57.464Z,99466.56
2023-03-24T16:41:24.706Z,99462.44
2023-03-24T16:43:53.070Z,99459.16
2023-03-24T16:46:25.518Z,99460.06
2023-03-24T16:48:52.664Z,99455.72
2023-03-24T16:51:19.546Z,99453.47
2023-03-24T16:53:46.702Z,99453.28
2023-03-24T16:56:15.551Z,99451.69
2023-03-24T16:58:42.168Z,99453.38
2023-03-24T17:01:37.799Z,99456.59
2023-03-24T17:04:10.636Z,99445.88
2023-03-24T17:06:39.895Z,99450.09
2023-03-24T17:09:08.177Z,99450.66
2023-03-24T17:11:41.673Z,99445.06
2023-03-24T17:14:12.211Z,99451.22
2023-03-24T17:16:44.429Z,99444.38
2023-03-24T17:19:16.848Z,99445.91
2023-03-24T17:21:59.284Z,99449.97
2023-03-24T17:24:25.949Z,99450.84
2023-03-24T17:26:52.826Z,99441.22
2023-03-24T17:29:19.403Z,99446.09
2023-03-24T17:31:46.080Z,99442.56
2023-03-24T17:36:43.945Z,99442.66
2023-03-24T17:39:16.058Z,99444.34
2023-03-24T17:41:42.605Z,99441.22
2023-03-24T17:44:09.175Z,99446.50
2023-03-24T17:46:35.795Z,99439.59
2023-03-24T17:49:02.370Z,99441.94
2023-03-24T17:51:28.924Z,99441.88
2023-03-24T17:53:55.461Z,99445.47
2023-03-24T17:56:22.074Z,99442.28
2023-03-24T17:58:48.939Z,99446.88
2023-03-24T18:01:18.267Z,99441.81
2023-03-24T18:03:45.067Z,99448.69
2023-03-24T18:06:15.692Z,99444.25
2023-03-24T18:08:42.632Z,99451.28
2023-03-24T18:11:11.777Z,99458.47
2023-03-24T18:13:38.466Z,99457.00
2023-03-24T18:16:19.708Z,99457.38
2023-03-24T18:18:47.838Z,99463.53
2023-03-24T18:21:14.714Z,99463.91
2023-03-24T18:23:41.489Z,99464.06
2023-03-24T18:26:08.903Z,99472.94
2023-03-24T18:28:37.531Z,99470.59
2023-03-24T18:31:16.008Z,99464.00
2023-03-24T18:33:45.914Z,99464.28
2023-03-24T18:36:16.599Z,99459.94
2023-03-24T18:38:43.589Z,99454.22
2023-03-24T18:41:12.851Z,99464.34
2023-03-24T18:43:44.982Z,99461.63
2023-03-24T18:46:11.833Z,99462.28
2023-03-24T18:48:39.610Z,99461.44
2023-03-24T18:51:07.817Z,99464.41
2023-03-24T18:53:34.713Z,99463.28
2023-03-24T18:56:02.391Z,99459.91
2023-03-24T18:58:28.976Z,99461.03
2023-03-24T19:00:57.516Z,99458.47
2023-03-24T19:03:27.161Z,99460.91
2023-03-24T19:05:54.103Z,99458.09
2023-03-24T19:08:21.940Z,99452.66
2023-03-24T19:10:49.161Z,99463.91
2023-03-24T19:13:16.944Z,99461.78
2023-03-24T19:15:48.377Z,99449.34
2023-03-24T19:18:15.511Z,99456.97
2023-03-24T19:20:42.215Z,99444.63
2023-03-24T19:23:09.284Z,99445.84
2023-03-24T19:25:36.315Z,99453.41
2023-03-24T19:28:03.300Z,99456.69
2023-03-24T19:30:29.909Z,99458.75
2023-03-24T19:32:56.968Z,99462.69
2023-03-24T19:35:24.211Z,99454.56
2023-03-24T19:37:50.836Z,99455.09
2023-03-24T19:40:17.598Z,99448.75
2023-03-24T19:42:45.171Z,99453.50
2023-03-24T19:45:15.491Z,99455.38
2023-03-24T19:47:51.735Z,99454.13
2023-03-24T19:50:18.667Z,99450.19
2023-03-24T19:52:46.172Z,99452.59
2023-03-24T19:55:12.824Z,99456.53
2023-03-24T19:57:39.502Z,99446.44
2023-03-24T20:00:10.201Z,99444.75
2023-03-24T20:02:38.336Z,99447.34
2023-03-24T20:05:06.844Z,99437.25
2023-03-24T20:07:34.194Z,99447.41
2023-03-24T20:10:00.872Z,99436.47
2023-03-24T20:12:27.812Z,99439.25
2023-03-24T20:14:55.061Z,99437.63
2023-03-24T20:17:24.837Z,99426.38
2023-03-24T20:19:51.429Z,99439.56
2023-03-24T20:22:18.064Z,99435.19
2023-03-24T20:24:44.736Z,99444.50
2023-03-24T20:27:11.323Z,99443.81
2023-03-24T20:29:39.896Z,99445.31
2023-03-24T20:32:10.226Z,99461.84
2023-03-24T20:34:38.064Z,99457.72
2023-03-24T20:37:05.560Z,99460.63
2023-03-24T20:39:32.348Z,99451.16
2023-03-24T20:41:59.194Z,99459.91
2023-03-24T20:44:26.201Z,99457.81
2023-03-24T20:46:53.030Z,99454.38
2023-03-24T20:49:19.630Z,99454.19
2023-03-24T20:51:46.287Z,99449.25
2023-03-24T20:54:13.428Z,99444.13
2023-03-24T20:56:40.074Z,99437.88
2023-03-24T20:59:07.085Z,99435.16
2023-03-24T21:01:41.893Z,99431.63
2023-03-24T21:04:10.090Z,99434.69
2023-03-24T21:06:40.317Z,99444.50
2023-03-24T21:09:07.248Z,99438.91
2023-03-24T21:11:34.206Z,99438.03
2023-03-24T21:14:02.643Z,99442.47
2023-03-24T21:16:33.702Z,99435.81
2023-03-24T21:19:03.761Z,99441.22
2023-03-24T21:21:31.075Z,99435.00
2023-03-24T21:23:58.114Z,99432.47
2023-03-24T21:26:25.364Z,99430.59
2023-03-24T21:28:55.514Z,99431.53
2023-03-24T21:31:29.532Z,99434.25
2023-03-24T21:33:57.317Z,99433.03
2023-03-24T21:36:25.649Z,99438.28
2023-03-24T21:38:54.048Z,99447.69
2023-03-24T21:41:22.935Z,99453.03
2023-03-24T21:43:54.270Z,99446.97
2023-03-24T21:46:22.463Z,99445.50
2023-03-24T21:48:55.506Z,99459.78
2023-03-24T21:51:25.081Z,99463.78
2023-03-24T21:53:55.834Z,99461.03
2023-03-24T21:56:23.349Z,99464.38
2023-03-24T21:58:52.135Z,99466.72
2023-03-24T22:01:18.695Z,99470.06
2023-03-24T22:03:46.421Z,99462.59
2023-03-24T22:06:13.278Z,99473.06
2023-03-24T22:08:43.517Z,99473.06
2023-03-24T22:11:10.994Z,99468.28
2023-03-24T22:13:39.364Z,99458.94
2023-03-24T22:16:06.769Z,99453.63
2023-03-24T22:18:35.093Z,99459.78
2023-03-24T22:21:06.863Z,99451.91
2023-03-24T22:23:37.798Z,99454.50
2023-03-24T22:26:10.396Z,99444.75
2023-03-24T22:28:37.789Z,99441.25
2023-03-24T22:31:13.795Z,99452.78
2023-03-24T22:33:40.683Z,99446.13
2023-03-24T22:36:08.029Z,99444.91
2023-03-24T22:38:34.962Z,99443.69
2023-03-24T22:41:04.991Z,99428.31
2023-03-24T22:43:32.087Z,99429.97
2023-03-24T22:45:58.682Z,99418.94
2023-03-24T22:48:25.686Z,99427.91
2023-03-24T22:50:52.984Z,99426.91
2023-03-24T22:53:20.588Z,99420.63
2023-03-24T22:55:47.400Z,99427.53
2023-03-24T22:58:14.270Z,99448.19
2023-03-24T23:00:42.211Z,99432.56
2023-03-24T23:03:10.008Z,99434.44
2023-03-24T23:05:45.561Z,99429.84
2023-03-24T23:08:15.153Z,99429.66
2023-03-24T23:10:43.982Z,99429.66
2023-03-24T23:13:11.267Z,99428.84
2023-03-24T23:15:38.931Z,99419.84
2023-03-24T23:18:05.716Z,99423.59
2023-03-24T23:20:32.459Z,99430.88
2023-03-24T23:22:59.008Z,99437.16
2023-03-24T23:25:25.976Z,99432.97
2023-03-24T23:27:52.585Z,99430.44
2023-03-24T23:30:19.767Z,99430.84
2023-03-24T23:32:46.922Z,99425.19
2023-03-24T23:35:13.883Z,99424.38
2023-03-24T23:37:40.484Z,99423.72
2023-03-24T23:40:12.769Z,99426.63
2023-03-24T23:42:41.448Z,99418.69
2023-03-24T23:45:10.862Z,99423.47
2023-03-24T23:47:37.684Z,99422.63
2023-03-24T23:50:06.329Z,99419.06
2023-03-24T23:52:33.801Z,99423.84
2023-03-24T23:55:02.226Z,99422.34
2023-03-24T23:57:29.014Z,99424.88
2023-03-24T23:59:55.590Z,99422.00
